sensor_id;sensor_type;location;lat;lon;timestamp;pressure;altitude;pressure_sealevel;temperature;humidity
25944;BME280;13742;49.306;8.636;2023-02-19T00:00:36;101090.78;;;10.50;83.46
25944;BME280;13742;49.306;8.636;2023-02-19T00:01:40;101087.88;;;10.49;83.52
25944;BME280;13742;49.306;8.636;2023-02-19T00:02:36;101087.91;;;10.47;83.72
25944;BME280;13742;49.306;8.636;2023-02-19T00:03:36;101090.49;;;10.45;83.75
25944;BME280;13742;49.306;8.636;2023-02-19T00:04:36;101092.79;;;10.46;83.63
25944;BME280;13742;49.306;8.636;2023-02-19T00:05:36;101087.66;;;10.44;83.74
25944;BME280;13742;49.306;8.636;2023-02-19T00:06:36;101083.33;;;10.48;83.73
25944;BME280;13742;49.306;8.636;2023-02-19T00:07:36;101084.79;;;10.47;83.72
25944;BME280;13742;49.306;8.636;2023-02-19T00:08:36;101087.60;;;10.49;83.70
25944;BME280;13742;49.306;8.636;2023-02-19T00:09:36;101081.41;;;10.48;83.86
25944;BME280;13742;49.306;8.636;2023-02-19T00:10:36;101081.56;;;10.48;84.09
25944;BME280;13742;49.306;8.636;2023-02-19T00:11:36;101081.90;;;10.48;84.24
25944;BME280;13742;49.306;8.636;2023-02-19T00:12:36;101090.10;;;10.48;84.18
25944;BME280;13742;49.306;8.636;2023-02-19T00:13:36;101089.19;;;10.47;84.24
25944;BME280;13742;49.306;8.636;2023-02-19T00:14:36;101086.33;;;10.47;84.35
25944;BME280;13742;49.306;8.636;2023-02-19T00:15:36;101082.09;;;10.47;84.24
25944;BME280;13742;49.306;8.636;2023-02-19T00:16:36;101073.09;;;10.48;84.29
25944;BME280;13742;49.306;8.636;2023-02-19T00:17:36;101073.58;;;10.46;84.28
25944;BME280;13742;49.306;8.636;2023-02-19T00:18:36;101062.61;;;10.44;84.41
25944;BME280;13742;49.306;8.636;2023-02-19T00:19:36;101053.84;;;10.45;84.39
25944;BME280;13742;49.306;8.636;2023-02-19T00:20:36;101050.92;;;10.45;84.52
25944;BME280;13742;49.306;8.636;2023-02-19T00:21:36;101065.48;;;10.46;84.77
25944;BME280;13742;49.306;8.636;2023-02-19T00:22:36;101064.35;;;10.45;85.26
25944;BME280;13742;49.306;8.636;2023-02-19T00:23:36;101069.33;;;10.46;85.72
25944;BME280;13742;49.306;8.636;2023-02-19T00:24:36;101067.38;;;10.45;85.80
25944;BME280;13742;49.306;8.636;2023-02-19T00:25:36;101066.84;;;10.44;86.21
25944;BME280;13742;49.306;8.636;2023-02-19T00:26:36;101051.58;;;10.45;86.37
25944;BME280;13742;49.306;8.636;2023-02-19T00:27:36;101044.67;;;10.44;86.24
25944;BME280;13742;49.306;8.636;2023-02-19T00:28:36;101042.86;;;10.41;86.33
25944;BME280;13742;49.306;8.636;2023-02-19T00:29:36;101046.70;;;10.41;86.66
25944;BME280;13742;49.306;8.636;2023-02-19T00:30:36;101060.98;;;10.40;86.56
25944;BME280;13742;49.306;8.636;2023-02-19T00:31:36;101066.19;;;10.40;86.56
25944;BME280;13742;49.306;8.636;2023-02-19T00:32:36;101066.86;;;10.38;86.62
25944;BME280;13742;49.306;8.636;2023-02-19T00:33:36;101069.55;;;10.38;86.60
25944;BME280;13742;49.306;8.636;2023-02-19T00:34:36;101066.70;;;10.35;86.93
25944;BME280;13742;49.306;8.636;2023-02-19T00:35:36;101068.19;;;10.35;86.89
25944;BME280;13742;49.306;8.636;2023-02-19T00:36:36;101066.49;;;10.34;87.18
25944;BME280;13742;49.306;8.636;2023-02-19T00:37:36;101056.94;;;10.33;87.23
25944;BME280;13742;49.306;8.636;2023-02-19T00:38:36;101059.89;;;10.33;87.18
25944;BME280;13742;49.306;8.636;2023-02-19T00:39:36;101068.55;;;10.33;87.43
25944;BME280;13742;49.306;8.636;2023-02-19T00:40:36;101075.29;;;10.33;87.37
25944;BME280;13742;49.306;8.636;2023-02-19T00:41:36;101076.09;;;10.31;87.48
25944;BME280;13742;49.306;8.636;2023-02-19T00:42:36;101062.75;;;10.31;87.45
25944;BME280;13742;49.306;8.636;2023-02-19T00:43:36;101063.20;;;10.31;87.39
25944;BME280;13742;49.306;8.636;2023-02-19T00:44:36;101066.69;;;10.31;87.57
25944;BME280;13742;49.306;8.636;2023-02-19T00:45:36;101063.42;;;10.31;87.59
25944;BME280;13742;49.306;8.636;2023-02-19T00:46:37;101063.06;;;10.28;87.95
25944;BME280;13742;49.306;8.636;2023-02-19T00:47:36;101065.96;;;10.29;87.88
25944;BME280;13742;49.306;8.636;2023-02-19T00:48:36;101072.92;;;10.29;87.95
25944;BME280;13742;49.306;8.636;2023-02-19T00:49:36;101079.27;;;10.28;87.88
25944;BME280;13742;49.306;8.636;2023-02-19T00:50:36;101084.19;;;10.28;87.98
25944;BME280;13742;49.306;8.636;2023-02-19T00:51:36;101080.31;;;10.28;87.93
25944;BME280;13742;49.306;8.636;2023-02-19T00:52:36;101079.45;;;10.28;88.03
25944;BME280;13742;49.306;8.636;2023-02-19T00:53:36;101071.20;;;10.28;87.78
25944;BME280;13742;49.306;8.636;2023-02-19T00:54:36;101077.78;;;10.27;88.04
25944;BME280;13742;49.306;8.636;2023-02-19T00:55:36;101064.41;;;10.27;88.08
25944;BME280;13742;49.306;8.636;2023-02-19T00:56:36;101062.15;;;10.27;87.94
25944;BME280;13742;49.306;8.636;2023-02-19T00:57:36;101063.66;;;10.27;88.09
25944;BME280;13742;49.306;8.636;2023-02-19T00:58:36;101063.55;;;10.26;87.94
25944;BME280;13742;49.306;8.636;2023-02-19T00:59:36;101062.41;;;10.24;87.95
25944;BME280;13742;49.306;8.636;2023-02-19T01:00:36;101064.38;;;10.23;88.29
25944;BME280;13742;49.306;8.636;2023-02-19T01:01:36;101054.05;;;10.23;88.15
25944;BME280;13742;49.306;8.636;2023-02-19T01:02:36;101051.00;;;10.22;88.14
25944;BME280;13742;49.306;8.636;2023-02-19T01:03:36;101048.25;;;10.23;88.25
25944;BME280;13742;49.306;8.636;2023-02-19T01:04:36;101049.72;;;10.24;88.20
25944;BME280;13742;49.306;8.636;2023-02-19T01:05:36;101049.85;;;10.23;88.40
25944;BME280;13742;49.306;8.636;2023-02-19T01:06:36;101049.15;;;10.22;88.34
25944;BME280;13742;49.306;8.636;2023-02-19T01:07:36;101046.87;;;10.22;88.39
25944;BME280;13742;49.306;8.636;2023-02-19T01:08:36;101050.57;;;10.20;88.63
25944;BME280;13742;49.306;8.636;2023-02-19T01:09:37;101059.63;;;10.21;88.66
25944;BME280;13742;49.306;8.636;2023-02-19T01:10:36;101064.19;;;10.21;88.53
25944;BME280;13742;49.306;8.636;2023-02-19T01:11:36;101068.67;;;10.22;88.36
25944;BME280;13742;49.306;8.636;2023-02-19T01:12:36;101073.51;;;10.20;88.44
25944;BME280;13742;49.306;8.636;2023-02-19T01:13:36;101071.13;;;10.21;88.06
25944;BME280;13742;49.306;8.636;2023-02-19T01:14:36;101071.92;;;10.22;88.17
25944;BME280;13742;49.306;8.636;2023-02-19T01:15:36;101064.77;;;10.20;88.37
25944;BME280;13742;49.306;8.636;2023-02-19T01:16:36;101065.20;;;10.20;88.52
25944;BME280;13742;49.306;8.636;2023-02-19T01:17:36;101062.55;;;10.20;88.52
25944;BME280;13742;49.306;8.636;2023-02-19T01:18:36;101064.92;;;10.20;88.49
25944;BME280;13742;49.306;8.636;2023-02-19T01:19:36;101061.16;;;10.19;88.57
25944;BME280;13742;49.306;8.636;2023-02-19T01:20:39;101065.00;;;10.20;88.48
25944;BME280;13742;49.306;8.636;2023-02-19T01:21:36;101060.38;;;10.19;88.42
25944;BME280;13742;49.306;8.636;2023-02-19T01:22:36;101062.30;;;10.19;88.59
25944;BME280;13742;49.306;8.636;2023-02-19T01:23:36;101070.39;;;10.19;88.54
25944;BME280;13742;49.306;8.636;2023-02-19T01:24:36;101071.96;;;10.20;88.54
25944;BME280;13742;49.306;8.636;2023-02-19T01:25:39;101075.09;;;10.18;88.25
25944;BME280;13742;49.306;8.636;2023-02-19T01:26:36;101073.80;;;10.19;88.36
25944;BME280;13742;49.306;8.636;2023-02-19T01:27:36;101071.60;;;10.19;88.41
25944;BME280;13742;49.306;8.636;2023-02-19T01:28:36;101065.75;;;10.20;88.41
25944;BME280;13742;49.306;8.636;2023-02-19T01:29:36;101062.95;;;10.19;88.44
25944;BME280;13742;49.306;8.636;2023-02-19T01:30:36;101066.30;;;10.20;88.44
25944;BME280;13742;49.306;8.636;2023-02-19T01:31:37;101070.78;;;10.18;88.68
25944;BME280;13742;49.306;8.636;2023-02-19T01:32:36;101077.67;;;10.18;88.50
25944;BME280;13742;49.306;8.636;2023-02-19T01:33:36;101086.39;;;10.19;88.53
25944;BME280;13742;49.306;8.636;2023-02-19T01:34:36;101087.23;;;10.18;88.54
25944;BME280;13742;49.306;8.636;2023-02-19T01:35:39;101083.89;;;10.18;88.67
25944;BME280;13742;49.306;8.636;2023-02-19T01:36:36;101078.94;;;10.18;88.51
25944;BME280;13742;49.306;8.636;2023-02-19T01:37:36;101073.38;;;10.18;88.58
25944;BME280;13742;49.306;8.636;2023-02-19T01:38:36;101078.75;;;10.19;88.52
25944;BME280;13742;49.306;8.636;2023-02-19T01:39:36;101068.64;;;10.18;88.57
25944;BME280;13742;49.306;8.636;2023-02-19T01:40:36;101074.45;;;10.19;88.51
25944;BME280;13742;49.306;8.636;2023-02-19T01:41:37;101075.14;;;10.18;88.43
25944;BME280;13742;49.306;8.636;2023-02-19T01:42:36;101069.98;;;10.18;88.54
25944;BME280;13742;49.306;8.636;2023-02-19T01:45:37;101058.93;;;10.17;88.88
25944;BME280;13742;49.306;8.636;2023-02-19T01:46:40;101042.73;;;10.16;89.12
25944;BME280;13742;49.306;8.636;2023-02-19T01:47:36;101044.19;;;10.17;89.18
25944;BME280;13742;49.306;8.636;2023-02-19T01:48:36;101044.41;;;10.17;89.95
25944;BME280;13742;49.306;8.636;2023-02-19T01:49:40;101044.81;;;10.16;89.95
25944;BME280;13742;49.306;8.636;2023-02-19T01:50:38;101047.56;;;10.16;90.34
25944;BME280;13742;49.306;8.636;2023-02-19T01:51:38;101041.28;;;10.14;90.84
25944;BME280;13742;49.306;8.636;2023-02-19T01:52:36;101035.77;;;10.12;91.17
25944;BME280;13742;49.306;8.636;2023-02-19T01:53:36;101035.94;;;10.11;91.16
25944;BME280;13742;49.306;8.636;2023-02-19T01:54:36;101032.69;;;10.09;91.24
25944;BME280;13742;49.306;8.636;2023-02-19T01:55:36;101037.47;;;10.09;91.35
25944;BME280;13742;49.306;8.636;2023-02-19T01:56:37;101040.13;;;10.09;91.21
25944;BME280;13742;49.306;8.636;2023-02-19T01:57:37;101046.96;;;10.07;91.88
25944;BME280;13742;49.306;8.636;2023-02-19T01:58:36;101047.95;;;10.04;92.03
25944;BME280;13742;49.306;8.636;2023-02-19T01:59:36;101045.23;;;10.05;91.93
25944;BME280;13742;49.306;8.636;2023-02-19T02:00:36;101056.53;;;10.04;91.87
25944;BME280;13742;49.306;8.636;2023-02-19T02:01:36;101048.75;;;10.04;91.75
25944;BME280;13742;49.306;8.636;2023-02-19T02:02:36;101051.20;;;10.02;92.13
25944;BME280;13742;49.306;8.636;2023-02-19T02:03:37;101053.52;;;10.02;92.16
25944;BME280;13742;49.306;8.636;2023-02-19T02:04:36;101049.56;;;10.02;91.89
25944;BME280;13742;49.306;8.636;2023-02-19T02:05:41;101050.58;;;10.02;92.19
25944;BME280;13742;49.306;8.636;2023-02-19T02:06:41;101047.27;;;10.01;92.27
25944;BME280;13742;49.306;8.636;2023-02-19T02:07:41;101051.48;;;10.01;92.19
25944;BME280;13742;49.306;8.636;2023-02-19T02:08:41;101047.87;;;10.01;92.50
25944;BME280;13742;49.306;8.636;2023-02-19T02:09:41;101048.22;;;10.00;92.41
25944;BME280;13742;49.306;8.636;2023-02-19T02:10:36;101045.70;;;10.01;92.48
25944;BME280;13742;49.306;8.636;2023-02-19T02:11:36;101046.71;;;10.01;92.71
25944;BME280;13742;49.306;8.636;2023-02-19T02:12:36;101044.89;;;10.01;92.66
25944;BME280;13742;49.306;8.636;2023-02-19T02:13:36;101041.17;;;10.00;92.54
25944;BME280;13742;49.306;8.636;2023-02-19T02:14:36;101037.42;;;10.01;92.80
25944;BME280;13742;49.306;8.636;2023-02-19T02:15:43;101036.43;;;10.01;92.48
25944;BME280;13742;49.306;8.636;2023-02-19T02:23:39;101025.09;;;9.97;92.70
25944;BME280;13742;49.306;8.636;2023-02-19T02:24:40;101026.70;;;9.98;92.71
25944;BME280;13742;49.306;8.636;2023-02-19T02:28:45;101023.71;;;9.97;92.63
25944;BME280;13742;49.306;8.636;2023-02-19T02:30:24;101019.08;;;9.98;92.60
25944;BME280;13742;49.306;8.636;2023-02-19T02:30:40;101020.55;;;9.97;92.66
25944;BME280;13742;49.306;8.636;2023-02-19T02:31:39;101021.26;;;9.96;92.71
25944;BME280;13742;49.306;8.636;2023-02-19T02:33:40;101027.58;;;9.96;92.75
25944;BME280;13742;49.306;8.636;2023-02-19T02:34:40;101032.08;;;9.97;92.64
25944;BME280;13742;49.306;8.636;2023-02-19T02:35:40;101033.75;;;9.97;92.48
25944;BME280;13742;49.306;8.636;2023-02-19T02:36:36;101035.80;;;9.96;92.74
25944;BME280;13742;49.306;8.636;2023-02-19T02:37:37;101031.55;;;9.98;92.70
25944;BME280;13742;49.306;8.636;2023-02-19T02:38:36;101027.13;;;9.97;92.82
25944;BME280;13742;49.306;8.636;2023-02-19T02:39:36;101029.71;;;9.97;93.01
25944;BME280;13742;49.306;8.636;2023-02-19T02:40:36;101021.31;;;9.96;93.33
25944;BME280;13742;49.306;8.636;2023-02-19T02:42:37;101016.80;;;9.96;93.44
25944;BME280;13742;49.306;8.636;2023-02-19T02:43:36;101018.75;;;9.95;93.65
25944;BME280;13742;49.306;8.636;2023-02-19T02:44:36;101017.84;;;9.93;94.06
25944;BME280;13742;49.306;8.636;2023-02-19T02:45:36;101015.23;;;9.92;94.20
25944;BME280;13742;49.306;8.636;2023-02-19T02:46:37;101011.03;;;9.93;94.08
25944;BME280;13742;49.306;8.636;2023-02-19T02:49:50;101010.31;;;9.90;94.63
25944;BME280;13742;49.306;8.636;2023-02-19T02:50:37;101004.59;;;9.90;94.73
25944;BME280;13742;49.306;8.636;2023-02-19T02:51:37;101005.34;;;9.91;94.68
25944;BME280;13742;49.306;8.636;2023-02-19T02:52:41;101004.61;;;9.88;95.11
25944;BME280;13742;49.306;8.636;2023-02-19T02:53:45;101005.11;;;9.88;95.01
25944;BME280;13742;49.306;8.636;2023-02-19T02:54:41;101000.70;;;9.87;95.01
25944;BME280;13742;49.306;8.636;2023-02-19T02:55:42;101002.98;;;9.88;94.83
25944;BME280;13742;49.306;8.636;2023-02-19T02:56:36;101000.19;;;9.88;94.93
25944;BME280;13742;49.306;8.636;2023-02-19T02:57:36;101003.28;;;9.87;94.79
25944;BME280;13742;49.306;8.636;2023-02-19T02:58:36;101005.42;;;9.87;94.97
25944;BME280;13742;49.306;8.636;2023-02-19T02:59:36;100999.91;;;9.87;95.03
25944;BME280;13742;49.306;8.636;2023-02-19T03:00:53;101001.51;;;9.88;95.07
25944;BME280;13742;49.306;8.636;2023-02-19T03:01:42;100998.30;;;9.84;95.29
25944;BME280;13742;49.306;8.636;2023-02-19T03:02:36;101001.23;;;9.82;95.50
25944;BME280;13742;49.306;8.636;2023-02-19T03:03:36;101000.27;;;9.84;95.32
25944;BME280;13742;49.306;8.636;2023-02-19T03:05:41;101002.36;;;9.85;95.22
25944;BME280;13742;49.306;8.636;2023-02-19T03:06:36;101006.16;;;9.83;95.36
25944;BME280;13742;49.306;8.636;2023-02-19T03:07:38;101001.84;;;9.84;95.49
25944;BME280;13742;49.306;8.636;2023-02-19T03:09:40;101005.50;;;9.83;95.37
25944;BME280;13742;49.306;8.636;2023-02-19T03:10:40;101002.91;;;9.83;95.52
25944;BME280;13742;49.306;8.636;2023-02-19T03:11:41;101008.95;;;9.81;95.75
25944;BME280;13742;49.306;8.636;2023-02-19T03:12:41;101009.74;;;9.81;95.98
25944;BME280;13742;49.306;8.636;2023-02-19T03:13:41;101007.20;;;9.80;96.06
25944;BME280;13742;49.306;8.636;2023-02-19T03:14:42;101009.75;;;9.79;96.06
25944;BME280;13742;49.306;8.636;2023-02-19T03:15:42;101010.81;;;9.80;95.90
25944;BME280;13742;49.306;8.636;2023-02-19T03:16:41;101011.96;;;9.80;95.79
25944;BME280;13742;49.306;8.636;2023-02-19T03:17:42;101012.32;;;9.80;95.82
25944;BME280;13742;49.306;8.636;2023-02-19T03:18:41;101008.78;;;9.78;96.15
25944;BME280;13742;49.306;8.636;2023-02-19T03:19:37;101011.80;;;9.78;96.21
25944;BME280;13742;49.306;8.636;2023-02-19T03:20:37;101009.23;;;9.79;96.16
25944;BME280;13742;49.306;8.636;2023-02-19T03:21:37;101009.38;;;9.79;96.07
25944;BME280;13742;49.306;8.636;2023-02-19T03:22:36;101002.69;;;9.78;95.97
25944;BME280;13742;49.306;8.636;2023-02-19T03:23:41;101007.03;;;9.79;96.03
25944;BME280;13742;49.306;8.636;2023-02-19T03:24:42;101006.69;;;9.78;96.12
25944;BME280;13742;49.306;8.636;2023-02-19T03:25:41;101005.61;;;9.77;96.25
25944;BME280;13742;49.306;8.636;2023-02-19T03:26:35;101003.16;;;9.76;96.40
25944;BME280;13742;49.306;8.636;2023-02-19T03:27:36;101008.48;;;9.76;96.56
25944;BME280;13742;49.306;8.636;2023-02-19T03:28:41;101009.39;;;9.76;96.68
25944;BME280;13742;49.306;8.636;2023-02-19T03:29:36;101014.40;;;9.73;96.88
25944;BME280;13742;49.306;8.636;2023-02-19T03:30:37;101020.83;;;9.73;97.17
25944;BME280;13742;49.306;8.636;2023-02-19T03:31:36;101019.70;;;9.71;97.42
25944;BME280;13742;49.306;8.636;2023-02-19T03:32:38;101025.50;;;9.70;97.57
25944;BME280;13742;49.306;8.636;2023-02-19T03:33:35;101026.39;;;9.69;97.88
25944;BME280;13742;49.306;8.636;2023-02-19T03:34:36;101032.22;;;9.69;98.09
25944;BME280;13742;49.306;8.636;2023-02-19T03:36:38;101030.15;;;9.68;98.33
25944;BME280;13742;49.306;8.636;2023-02-19T03:37:37;101030.69;;;9.69;98.43
25944;BME280;13742;49.306;8.636;2023-02-19T03:38:40;101034.58;;;9.68;98.67
25944;BME280;13742;49.306;8.636;2023-02-19T03:39:43;101036.75;;;9.65;99.44
25944;BME280;13742;49.306;8.636;2023-02-19T03:41:40;101023.67;;;9.66;99.55
25944;BME280;13742;49.306;8.636;2023-02-19T03:45:43;101024.08;;;9.63;100.00
25944;BME280;13742;49.306;8.636;2023-02-19T03:47:44;101020.44;;;9.61;100.00
25944;BME280;13742;49.306;8.636;2023-02-19T03:48:37;101024.95;;;9.61;100.00
25944;BME280;13742;49.306;8.636;2023-02-19T03:49:55;101026.70;;;9.61;100.00
25944;BME280;13742;49.306;8.636;2023-02-19T03:50:40;101033.86;;;9.60;100.00
25944;BME280;13742;49.306;8.636;2023-02-19T03:51:39;101032.53;;;9.56;100.00
25944;BME280;13742;49.306;8.636;2023-02-19T03:58:43;101024.05;;;9.49;100.00
25944;BME280;13742;49.306;8.636;2023-02-19T03:59:40;101023.43;;;9.47;100.00
25944;BME280;13742;49.306;8.636;2023-02-19T04:03:39;101013.71;;;9.43;100.00
25944;BME280;13742;49.306;8.636;2023-02-19T04:04:37;101017.75;;;9.43;100.00
25944;BME280;13742;49.306;8.636;2023-02-19T04:05:36;101015.36;;;9.43;100.00
25944;BME280;13742;49.306;8.636;2023-02-19T04:06:35;101020.48;;;9.43;100.00
25944;BME280;13742;49.306;8.636;2023-02-19T04:07:36;101017.88;;;9.42;100.00
25944;BME280;13742;49.306;8.636;2023-02-19T04:08:35;101022.42;;;9.41;100.00
25944;BME280;13742;49.306;8.636;2023-02-19T04:09:38;101029.06;;;9.40;100.00
25944;BME280;13742;49.306;8.636;2023-02-19T04:10:35;101027.69;;;9.40;100.00
25944;BME280;13742;49.306;8.636;2023-02-19T04:11:35;101026.47;;;9.41;100.00
25944;BME280;13742;49.306;8.636;2023-02-19T04:12:36;101029.37;;;9.41;100.00
25944;BME280;13742;49.306;8.636;2023-02-19T04:13:37;101031.41;;;9.40;100.00
25944;BME280;13742;49.306;8.636;2023-02-19T04:14:37;101028.92;;;9.38;100.00
25944;BME280;13742;49.306;8.636;2023-02-19T04:15:35;101034.99;;;9.37;100.00
25944;BME280;13742;49.306;8.636;2023-02-19T04:16:36;101030.56;;;9.36;100.00
25944;BME280;13742;49.306;8.636;2023-02-19T04:17:36;101033.78;;;9.37;100.00
25944;BME280;13742;49.306;8.636;2023-02-19T04:18:37;101034.21;;;9.38;100.00
25944;BME280;13742;49.306;8.636;2023-02-19T04:19:36;101037.72;;;9.38;100.00
25944;BME280;13742;49.306;8.636;2023-02-19T04:20:38;101030.97;;;9.37;100.00
25944;BME280;13742;49.306;8.636;2023-02-19T04:21:36;101030.50;;;9.36;100.00
25944;BME280;13742;49.306;8.636;2023-02-19T04:22:36;101029.48;;;9.37;100.00
25944;BME280;13742;49.306;8.636;2023-02-19T04:23:39;101026.39;;;9.35;100.00
25944;BME280;13742;49.306;8.636;2023-02-19T04:24:37;101031.78;;;9.35;100.00
25944;BME280;13742;49.306;8.636;2023-02-19T04:25:36;101036.28;;;9.35;100.00
25944;BME280;13742;49.306;8.636;2023-02-19T04:26:35;101036.10;;;9.36;100.00
25944;BME280;13742;49.306;8.636;2023-02-19T04:27:36;101037.05;;;9.35;100.00
25944;BME280;13742;49.306;8.636;2023-02-19T04:28:36;101034.16;;;9.34;100.00
25944;BME280;13742;49.306;8.636;2023-02-19T04:29:35;101032.91;;;9.33;100.00
25944;BME280;13742;49.306;8.636;2023-02-19T04:30:38;101022.52;;;9.31;100.00
25944;BME280;13742;49.306;8.636;2023-02-19T04:31:36;101018.22;;;9.31;100.00
25944;BME280;13742;49.306;8.636;2023-02-19T04:32:35;101016.26;;;9.33;100.00
25944;BME280;13742;49.306;8.636;2023-02-19T04:33:36;101019.09;;;9.31;100.00
25944;BME280;13742;49.306;8.636;2023-02-19T04:34:36;101017.24;;;9.30;100.00
25944;BME280;13742;49.306;8.636;2023-02-19T04:35:35;101019.78;;;9.30;100.00
25944;BME280;13742;49.306;8.636;2023-02-19T04:36:35;101015.44;;;9.31;100.00
25944;BME280;13742;49.306;8.636;2023-02-19T04:37:36;101019.64;;;9.30;100.00
25944;BME280;13742;49.306;8.636;2023-02-19T04:38:35;101026.14;;;9.30;100.00
25944;BME280;13742;49.306;8.636;2023-02-19T04:39:36;101029.77;;;9.30;100.00
25944;BME280;13742;49.306;8.636;2023-02-19T04:40:35;101025.62;;;9.29;100.00
25944;BME280;13742;49.306;8.636;2023-02-19T04:41:35;101026.56;;;9.28;100.00
25944;BME280;13742;49.306;8.636;2023-02-19T04:42:35;101032.19;;;9.27;100.00
25944;BME280;13742;49.306;8.636;2023-02-19T04:43:35;101039.70;;;9.28;100.00
25944;BME280;13742;49.306;8.636;2023-02-19T04:44:35;101036.50;;;9.28;100.00
25944;BME280;13742;49.306;8.636;2023-02-19T04:45:36;101040.47;;;9.29;100.00
25944;BME280;13742;49.306;8.636;2023-02-19T04:46:35;101039.34;;;9.26;100.00
25944;BME280;13742;49.306;8.636;2023-02-19T04:47:35;101036.08;;;9.27;100.00
25944;BME280;13742;49.306;8.636;2023-02-19T04:48:35;101036.80;;;9.27;100.00
25944;BME280;13742;49.306;8.636;2023-02-19T04:49:35;101034.00;;;9.27;100.00
25944;BME280;13742;49.306;8.636;2023-02-19T04:50:38;101037.15;;;9.27;100.00
25944;BME280;13742;49.306;8.636;2023-02-19T04:51:35;101040.33;;;9.26;100.00
25944;BME280;13742;49.306;8.636;2023-02-19T04:52:36;101038.63;;;9.27;100.00
25944;BME280;13742;49.306;8.636;2023-02-19T04:53:36;101031.88;;;9.25;100.00
25944;BME280;13742;49.306;8.636;2023-02-19T04:54:35;101032.69;;;9.26;100.00
25944;BME280;13742;49.306;8.636;2023-02-19T04:55:36;101032.33;;;9.25;100.00
25944;BME280;13742;49.306;8.636;2023-02-19T04:56:35;101031.83;;;9.25;100.00
25944;BME280;13742;49.306;8.636;2023-02-19T04:57:35;101036.80;;;9.26;100.00
25944;BME280;13742;49.306;8.636;2023-02-19T04:58:36;101045.30;;;9.24;100.00
25944;BME280;13742;49.306;8.636;2023-02-19T04:59:35;101031.17;;;9.21;100.00
25944;BME280;13742;49.306;8.636;2023-02-19T05:00:35;101035.22;;;9.21;100.00
25944;BME280;13742;49.306;8.636;2023-02-19T05:01:35;101034.47;;;9.21;100.00
25944;BME280;13742;49.306;8.636;2023-02-19T05:02:35;101025.05;;;9.21;100.00
25944;BME280;13742;49.306;8.636;2023-02-19T05:03:36;101028.94;;;9.22;100.00
25944;BME280;13742;49.306;8.636;2023-02-19T05:04:35;101033.98;;;9.21;100.00
25944;BME280;13742;49.306;8.636;2023-02-19T05:05:35;101032.07;;;9.20;100.00
25944;BME280;13742;49.306;8.636;2023-02-19T05:06:35;101023.00;;;9.19;100.00
25944;BME280;13742;49.306;8.636;2023-02-19T05:07:35;101015.41;;;9.18;100.00
25944;BME280;13742;49.306;8.636;2023-02-19T05:08:35;101021.95;;;9.18;100.00
25944;BME280;13742;49.306;8.636;2023-02-19T05:09:35;101025.45;;;9.17;100.00
25944;BME280;13742;49.306;8.636;2023-02-19T05:10:35;101025.03;;;9.14;100.00
25944;BME280;13742;49.306;8.636;2023-02-19T05:11:35;101021.96;;;9.15;100.00
25944;BME280;13742;49.306;8.636;2023-02-19T05:12:35;101025.22;;;9.16;100.00
25944;BME280;13742;49.306;8.636;2023-02-19T05:13:35;101015.98;;;9.16;100.00
25944;BME280;13742;49.306;8.636;2023-02-19T05:14:35;101027.49;;;9.16;100.00
25944;BME280;13742;49.306;8.636;2023-02-19T05:15:35;101034.98;;;9.13;100.00
25944;BME280;13742;49.306;8.636;2023-02-19T05:16:35;101036.02;;;9.15;100.00
25944;BME280;13742;49.306;8.636;2023-02-19T05:17:35;101032.13;;;9.14;100.00
25944;BME280;13742;49.306;8.636;2023-02-19T05:18:35;101035.98;;;9.14;100.00
25944;BME280;13742;49.306;8.636;2023-02-19T05:19:35;101038.22;;;9.15;100.00
25944;BME280;13742;49.306;8.636;2023-02-19T05:20:35;101038.87;;;9.14;100.00
25944;BME280;13742;49.306;8.636;2023-02-19T05:21:35;101034.83;;;9.14;100.00
25944;BME280;13742;49.306;8.636;2023-02-19T05:22:35;101038.77;;;9.15;100.00
25944;BME280;13742;49.306;8.636;2023-02-19T05:23:36;101035.49;;;9.14;100.00
25944;BME280;13742;49.306;8.636;2023-02-19T05:24:35;101036.58;;;9.15;100.00
25944;BME280;13742;49.306;8.636;2023-02-19T05:25:35;101038.77;;;9.15;100.00
25944;BME280;13742;49.306;8.636;2023-02-19T05:26:35;101033.03;;;9.15;100.00
25944;BME280;13742;49.306;8.636;2023-02-19T05:27:35;101032.95;;;9.15;100.00
25944;BME280;13742;49.306;8.636;2023-02-19T05:28:35;101034.39;;;9.17;100.00
25944;BME280;13742;49.306;8.636;2023-02-19T05:29:35;101039.94;;;9.17;100.00
25944;BME280;13742;49.306;8.636;2023-02-19T05:30:35;101034.61;;;9.16;100.00
25944;BME280;13742;49.306;8.636;2023-02-19T05:31:35;101030.60;;;9.17;100.00
25944;BME280;13742;49.306;8.636;2023-02-19T05:32:36;101041.86;;;9.16;100.00
25944;BME280;13742;49.306;8.636;2023-02-19T05:33:37;101041.34;;;9.14;100.00
25944;BME280;13742;49.306;8.636;2023-02-19T05:34:35;101037.78;;;9.15;100.00
25944;BME280;13742;49.306;8.636;2023-02-19T05:36:36;101045.55;;;9.15;100.00
25944;BME280;13742;49.306;8.636;2023-02-19T05:37:35;101051.45;;;9.13;100.00
25944;BME280;13742;49.306;8.636;2023-02-19T05:38:36;101046.98;;;9.11;100.00
25944;BME280;13742;49.306;8.636;2023-02-19T05:39:35;101045.14;;;9.11;100.00
25944;BME280;13742;49.306;8.636;2023-02-19T05:40:35;101049.90;;;9.12;100.00
25944;BME280;13742;49.306;8.636;2023-02-19T05:41:35;101053.08;;;9.11;100.00
25944;BME280;13742;49.306;8.636;2023-02-19T05:42:35;101054.06;;;9.11;100.00
25944;BME280;13742;49.306;8.636;2023-02-19T05:43:36;101054.46;;;9.12;100.00
25944;BME280;13742;49.306;8.636;2023-02-19T05:44:36;101055.14;;;9.11;100.00
25944;BME280;13742;49.306;8.636;2023-02-19T05:45:36;101053.52;;;9.12;100.00
25944;BME280;13742;49.306;8.636;2023-02-19T05:46:35;101051.77;;;9.12;100.00
25944;BME280;13742;49.306;8.636;2023-02-19T05:47:35;101042.44;;;9.12;100.00
25944;BME280;13742;49.306;8.636;2023-02-19T05:48:35;101037.34;;;9.11;100.00